Time;durP1;ratioP1;P1;durP2;ratioP2;P2;SDS_P1;SDS_P2;PMS_P1;PMS_P2;Temp;Humidity;BMP_temperature;BMP_pressure;BME280_temperature;BME280_humidity;BME280_pressure;Samples;Min_cycle;Max_cycle;Signal;HPM_P1;HPM_P2
2022/07/27 00:01:15;;;;;;;3.03;1.95;;;;;;;15.30;86.09;98715.44;4201562;28;20353;-72
2022/07/27 00:03:15;;;;;;;2.45;2.03;;;;;;;15.30;86.84;98705.09;4202633;28;20043;-72
2022/07/27 00:05:16;;;;;;;3.95;2.20;;;;;;;15.26;86.72;98706.31;4201630;28;20071;-72
2022/07/27 00:07:16;;;;;;;4.40;1.80;;;;;;;15.25;86.57;98690.78;4199680;28;20051;-71
2022/07/27 00:09:18;;;;;;;3.17;2.20;;;;;;;15.25;86.46;98691.59;4201702;28;20048;-71
2022/07/27 00:11:18;;;;;;;2.05;1.75;;;;;;;15.24;86.49;98692.00;4200912;28;20060;-72
2022/07/27 00:13:19;;;;;;;3.67;1.92;;;;;;;15.20;86.40;98703.16;4200387;28;20041;-72
2022/07/27 00:15:19;;;;;;;3.38;1.80;;;;;;;15.22;85.98;98713.88;4201280;28;20129;-71
2022/07/27 00:17:22;;;;;;;3.80;1.60;;;;;;;15.18;85.87;98711.13;4202387;28;20044;-71
2022/07/27 00:19:23;;;;;;;2.47;1.80;;;;;;;15.17;85.85;98718.69;4199979;28;20148;-71
2022/07/27 00:21:25;;;;;;;2.47;1.85;;;;;;;15.16;85.90;98703.16;4202048;28;20424;-71
2022/07/27 00:23:25;;;;;;;3.30;1.67;;;;;;;15.18;85.86;98713.91;4202012;28;20308;-71
2022/07/27 00:25:26;;;;;;;2.75;2.00;;;;;;;15.16;85.83;98705.94;4201561;28;20512;-71
2022/07/27 00:27:27;;;;;;;2.17;1.85;;;;;;;15.16;86.08;98710.72;4201529;28;20040;-71
2022/07/27 00:29:27;;;;;;;6.00;2.10;;;;;;;15.14;86.45;98713.09;4201045;28;20349;-71
2022/07/27 00:31:27;;;;;;;4.00;2.33;;;;;;;15.16;85.87;98716.31;4202170;28;20139;-71
2022/07/27 00:33:28;;;;;;;2.90;1.73;;;;;;;15.09;85.79;98705.19;4199659;28;20135;-71
2022/07/27 00:35:28;;;;;;;6.03;2.08;;;;;;;15.06;85.66;98706.78;4201572;28;20053;-71
2022/07/27 00:37:29;;;;;;;3.80;2.35;;;;;;;15.02;86.32;98694.84;4202030;28;20075;-72
2022/07/27 00:39:29;;;;;;;3.55;1.85;;;;;;;15.05;86.34;98690.44;4200451;28;20075;-72
2022/07/27 00:41:29;;;;;;;3.22;1.63;;;;;;;15.02;87.13;98697.63;4201836;28;20040;-71
2022/07/27 00:43:30;;;;;;;2.67;1.70;;;;;;;15.06;86.99;98700.41;4199978;28;20303;-72
2022/07/27 00:45:30;;;;;;;2.33;1.80;;;;;;;15.04;86.95;98706.38;4201017;28;20055;-72
2022/07/27 00:47:30;;;;;;;2.90;1.70;;;;;;;15.01;87.08;98704.41;4204415;28;20333;-72
2022/07/27 00:49:31;;;;;;;2.75;1.90;;;;;;;15.00;86.61;98708.38;4204438;28;20036;-72
2022/07/27 00:51:31;;;;;;;3.22;1.75;;;;;;;14.99;86.79;98706.81;4204505;28;20040;-72
2022/07/27 00:53:32;;;;;;;3.20;1.67;;;;;;;14.99;86.58;98709.59;4203205;28;20139;-71
2022/07/27 00:55:33;;;;;;;4.22;1.70;;;;;;;14.97;86.71;98711.16;4204278;28;20079;-71
2022/07/27 00:57:34;;;;;;;4.15;1.58;;;;;;;14.98;86.50;98715.56;4205215;28;20684;-71
2022/07/27 00:59:34;;;;;;;2.17;1.73;;;;;;;14.98;86.47;98710.78;4203929;28;20040;-71
2022/07/27 01:01:35;;;;;;;3.55;1.90;;;;;;;15.01;86.27;98707.19;4204428;28;20157;-71
2022/07/27 01:03:35;;;;;;;2.25;1.50;;;;;;;15.03;86.09;98712.34;4204278;28;20069;-71
2022/07/27 01:05:36;;;;;;;3.38;1.90;;;;;;;15.05;85.59;98715.53;4197026;28;20047;-71
2022/07/27 01:07:37;;;;;;;4.15;2.08;;;;;;;15.03;85.85;98709.56;4203665;28;20044;-71
2022/07/27 01:09:55;;;;;;;2.33;1.70;;;;;;;15.04;85.83;98720.31;4204006;28;20346;-71
2022/07/27 01:11:57;;;;;;;2.65;2.10;;;;;;;15.05;85.45;98715.53;4204567;28;20056;-71
2022/07/27 01:13:57;;;;;;;3.63;1.70;;;;;;;15.00;86.06;98713.97;4202969;28;20032;-71
2022/07/27 01:15:58;;;;;;;3.45;1.90;;;;;;;15.03;86.41;98721.50;4203861;28;20052;-71
2022/07/27 01:17:58;;;;;;;4.22;1.85;;;;;;;14.98;86.51;98716.38;4204676;28;20044;-71
2022/07/27 01:19:59;;;;;;;2.38;1.63;;;;;;;14.95;87.03;98721.94;4203601;28;20421;-71
2022/07/27 01:21:59;;;;;;;4.18;2.20;;;;;;;14.88;87.42;98714.38;4203923;28;20045;-71
2022/07/27 01:24:00;;;;;;;3.70;1.75;;;;;;;14.87;87.41;98716.38;4204617;28;20226;-71
2022/07/27 01:26:01;;;;;;;5.80;2.20;;;;;;;14.87;87.58;98710.78;4204051;28;20070;-72
2022/07/27 01:28:01;;;;;;;3.35;1.80;;;;;;;14.85;87.96;98715.19;4203628;28;20044;-72
2022/07/27 01:30:02;;;;;;;2.58;1.90;;;;;;;14.88;87.67;98709.59;4203660;28;20024;-72
2022/07/27 01:32:03;;;;;;;2.85;1.65;;;;;;;14.87;87.38;98715.56;4202005;28;20035;-72
2022/07/27 01:34:04;;;;;;;3.03;2.38;;;;;;;14.80;87.66;98710.81;4202306;28;20471;-72
2022/07/27 01:36:04;;;;;;;5.40;2.22;;;;;;;14.82;87.93;98713.22;4203172;28;20032;-71
2022/07/27 01:38:07;;;;;;;5.53;2.25;;;;;;;14.71;88.72;98709.63;4204405;28;20035;-72
2022/07/27 01:40:08;;;;;;;2.55;1.80;;;;;;;14.72;88.23;98714.78;4203068;28;20070;-71
2022/07/27 01:42:08;;;;;;;2.30;2.10;;;;;;;14.60;89.36;98712.44;4203675;28;20357;-71
2022/07/27 01:44:09;;;;;;;4.72;2.20;;;;;;;14.55;89.28;98716.41;4202549;28;20450;-71
2022/07/27 01:46:09;;;;;;;4.47;2.20;;;;;;;14.57;89.40;98721.59;4204204;28;20160;-71
2022/07/27 01:48:09;;;;;;;3.10;1.90;;;;;;;14.56;89.02;98722.75;4203948;28;20024;-71
2022/07/27 01:50:10;;;;;;;3.83;2.35;;;;;;;14.45;90.46;98727.53;4203655;28;20063;-71
2022/07/27 01:52:10;;;;;;;5.57;2.40;;;;;;;14.37;91.20;98729.50;4204342;28;20079;-72
2022/07/27 01:54:11;;;;;;;3.03;2.17;;;;;;;14.32;91.65;98727.94;4202517;28;20500;-72
2022/07/27 01:56:12;;;;;;;4.70;2.55;;;;;;;14.33;91.30;98721.16;4203239;28;20032;-72
2022/07/27 01:58:13;;;;;;;3.80;2.70;;;;;;;14.34;91.89;98721.97;4202326;28;20032;-72
2022/07/27 02:00:14;;;;;;;3.28;2.30;;;;;;;14.23;92.46;98719.19;4203807;28;20036;-72
2022/07/27 02:02:15;;;;;;;5.22;2.40;;;;;;;14.19;92.83;98721.16;4203559;28;20361;-71
2022/07/27 02:04:17;;;;;;;2.90;2.45;;;;;;;14.19;92.77;98714.78;4201368;28;20036;-72
2022/07/27 02:06:17;;;;;;;4.82;2.53;;;;;;;14.17;92.83;98717.97;4203873;28;20073;-72
2022/07/27 02:08:18;;;;;;;3.25;2.25;;;;;;;14.15;93.17;98716.75;4202833;28;20024;-72
2022/07/27 02:10:18;;;;;;;4.10;2.60;;;;;;;14.11;93.10;98715.97;4203169;28;20054;-72
2022/07/27 02:12:37;;;;;;;5.93;2.40;;;;;;;14.12;92.67;98715.56;4202557;28;20035;-72
2022/07/27 02:14:37;;;;;;;3.67;2.50;;;;;;;14.14;93.20;98709.59;4202931;28;20044;-71
2022/07/27 02:16:37;;;;;;;5.95;2.83;;;;;;;14.02;93.79;98708.00;4203415;28;20101;-71
2022/07/27 02:18:38;;;;;;;4.25;2.38;;;;;;;14.00;93.77;98711.19;4202845;28;20122;-71
2022/07/27 02:20:41;;;;;;;7.18;2.47;;;;;;;13.99;93.20;98706.03;4202961;28;20490;-71
2022/07/27 02:22:43;;;;;;;9.15;2.55;;;;;;;14.00;93.27;98704.84;4203312;28;20468;-71
2022/07/27 02:24:43;;;;;;;5.32;2.40;;;;;;;13.94;93.61;98692.50;4201982;28;20062;-72
2022/07/27 02:26:44;;;;;;;4.05;2.70;;;;;;;13.92;93.74;98701.25;4203744;28;20117;-71
2022/07/27 02:28:44;;;;;;;5.55;3.00;;;;;;;13.88;94.45;98703.22;4201294;28;20051;-71
2022/07/27 02:30:45;;;;;;;4.18;2.40;;;;;;;13.81;94.83;98705.97;4202839;28;20046;-71
2022/07/27 02:32:45;;;;;;;5.50;2.60;;;;;;;13.86;94.47;98707.59;4203078;28;20349;-71
2022/07/27 02:34:46;;;;;;;6.38;2.60;;;;;;;13.82;94.42;98710.38;4201709;28;20104;-71
2022/07/27 02:36:46;;;;;;;4.05;2.67;;;;;;;13.77;95.09;98703.19;4203173;28;20150;-71
2022/07/27 02:38:46;;;;;;;3.15;2.47;;;;;;;13.77;94.89;98714.31;4202537;28;20157;-72
2022/07/27 02:40:47;;;;;;;4.43;2.72;;;;;;;13.75;95.03;98713.13;4203401;28;20044;-72
2022/07/27 02:42:47;;;;;;;4.05;2.85;;;;;;;13.75;95.07;98713.94;4202248;28;20063;-72
2022/07/27 02:44:47;;;;;;;3.10;2.60;;;;;;;13.75;95.12;98715.91;4202066;28;20040;-71
2022/07/27 02:46:48;;;;;;;4.07;3.03;;;;;;;13.72;95.17;98709.13;4203300;28;20127;-71
2022/07/27 02:48:48;;;;;;;4.78;2.63;;;;;;;13.73;95.55;98712.72;4202276;28;20036;-71
2022/07/27 02:50:49;;;;;;;5.22;3.17;;;;;;;13.63;95.62;98714.28;4203051;28;20047;-71
2022/07/27 02:52:49;;;;;;;6.50;2.95;;;;;;;13.60;95.86;98717.06;4203640;28;20387;-71
2022/07/27 02:54:49;;;;;;;6.78;3.13;;;;;;;13.56;96.37;98721.78;4200963;28;20038;-71
2022/07/27 02:56:51;;;;;;;3.22;2.88;;;;;;;13.52;96.87;98723.78;4202106;28;20044;-71
2022/07/27 02:58:51;;;;;;;5.30;2.97;;;;;;;13.57;96.38;98727.00;4201882;28;20173;-71
2022/07/27 03:00:52;;;;;;;6.38;3.13;;;;;;;13.56;96.33;98727.34;4201547;28;20078;-71
2022/07/27 03:02:52;;;;;;;4.90;2.78;;;;;;;13.55;96.42;98723.00;4201974;28;20032;-71
2022/07/27 03:04:52;;;;;;;4.75;3.05;;;;;;;13.55;96.37;98725.78;4201762;28;20036;-71
2022/07/27 03:06:53;;;;;;;5.25;2.92;;;;;;;13.55;96.27;98720.22;4202660;28;20218;-71
2022/07/27 03:08:53;;;;;;;5.50;2.72;;;;;;;13.57;96.17;98717.81;4201480;28;20254;-72
2022/07/27 03:10:54;;;;;;;6.43;3.50;;;;;;;13.64;96.10;98728.97;4202086;28;20039;-72
2022/07/27 03:12:54;;;;;;;8.32;3.33;;;;;;;13.64;96.24;98717.84;4202156;28;20127;-71
2022/07/27 03:14:55;;;;;;;8.18;3.55;;;;;;;13.62;96.38;98721.03;4202115;28;20040;-71
2022/07/27 03:16:56;;;;;;;5.25;3.25;;;;;;;13.60;96.64;98726.19;4202847;28;20189;-71
2022/07/27 03:18:56;;;;;;;4.65;3.17;;;;;;;13.62;96.12;98729.38;4202581;28;20070;-71
2022/07/27 03:20:57;;;;;;;8.00;3.10;;;;;;;13.60;96.53;98717.06;4202389;28;20062;-71
2022/07/27 03:22:57;;;;;;;7.03;3.05;;;;;;;13.62;96.54;98723.81;4201139;28;20119;-71
2022/07/27 03:24:58;;;;;;;4.03;2.72;;;;;;;13.64;96.47;98723.41;4202654;28;20487;-71
2022/07/27 03:26:58;;;;;;;4.07;3.28;;;;;;;13.67;96.17;98725.44;4201428;28;20063;-71
2022/07/27 03:28:59;;;;;;;4.50;3.42;;;;;;;13.68;96.50;98724.22;4202361;28;20488;-71
2022/07/27 03:30:59;;;;;;;4.45;3.30;;;;;;;13.67;96.80;98729.00;4202729;28;20545;-71
2022/07/27 03:33:00;;;;;;;6.13;3.45;;;;;;;13.66;97.21;98726.63;4201202;28;20545;-71
2022/07/27 03:35:00;;;;;;;4.78;3.40;;;;;;;13.62;97.10;98728.56;4202579;28;20130;-71
2022/07/27 03:37:00;;;;;;;3.92;3.00;;;;;;;13.63;97.05;98722.63;4201647;28;20040;-71
2022/07/27 03:39:01;;;;;;;5.80;3.92;;;;;;;13.69;96.75;98723.84;4201602;28;20480;-71
2022/07/27 03:41:01;;;;;;;9.57;3.25;;;;;;;13.64;96.97;98715.88;4202229;28;20622;-71
2022/07/27 03:43:02;;;;;;;7.65;3.55;;;;;;;13.64;97.02;98721.44;4200204;28;20051;-71
2022/07/27 03:45:03;;;;;;;5.80;3.03;;;;;;;13.62;97.21;98709.91;4202752;28;20040;-71
2022/07/27 03:47:04;;;;;;;4.43;3.20;;;;;;;13.60;97.09;98712.28;4202038;28;20117;-71
2022/07/27 03:49:04;;;;;;;5.75;3.03;;;;;;;13.64;96.90;98707.53;4201687;28;20489;-71
2022/07/27 03:51:05;;;;;;;5.70;3.00;;;;;;;13.64;96.68;98717.84;4201590;28;20428;-71
2022/07/27 03:53:05;;;;;;;7.07;3.55;;;;;;;13.60;97.17;98712.28;4202573;28;20059;-71
2022/07/27 03:55:06;;;;;;;3.72;3.20;;;;;;;13.60;97.30;98712.28;4202083;28;20395;-71
2022/07/27 03:57:06;;;;;;;4.60;2.97;;;;;;;13.60;97.62;98714.28;4201798;28;20149;-71
2022/07/27 03:59:07;;;;;;;3.67;3.08;;;;;;;13.58;97.95;98716.66;4201409;28;20047;-71
2022/07/27 04:01:07;;;;;;;6.15;3.30;;;;;;;13.54;97.80;98724.97;4201905;28;20055;-71
2022/07/27 04:03:08;;;;;;;3.65;3.15;;;;;;;13.55;97.42;98718.22;4199220;28;20054;-71
2022/07/27 04:05:08;;;;;;;6.13;3.17;;;;;;;13.57;98.05;98728.94;4200300;28;20556;-71
2022/07/27 04:07:09;;;;;;;8.57;3.60;;;;;;;13.57;97.51;98727.00;4200844;28;20112;-71
2022/07/27 04:09:09;;;;;;;7.22;3.28;;;;;;;13.53;97.33;98723.38;4200052;28;20071;-71
2022/07/27 04:11:10;;;;;;;5.32;2.90;;;;;;;13.60;97.07;98730.97;4202003;28;20074;-71
2022/07/27 04:13:11;;;;;;;4.57;2.65;;;;;;;13.59;96.90;98721.03;4201793;28;20040;-71
2022/07/27 04:15:11;;;;;;;4.70;2.70;;;;;;;13.61;96.14;98725.00;4201122;28;20048;-71
2022/07/27 04:17:12;;;;;;;5.05;2.45;;;;;;;13.65;95.51;98731.38;4201863;28;20032;-72
2022/07/27 04:19:12;;;;;;;5.20;2.65;;;;;;;13.68;94.86;98730.59;4200496;28;20040;-72
2022/07/27 04:21:14;;;;;;;2.92;2.30;;;;;;;13.72;94.16;98734.16;4202143;28;20052;-71
2022/07/27 04:23:15;;;;;;;5.00;2.10;;;;;;;13.77;92.74;98733.00;4205001;28;20835;-71
2022/07/27 04:25:15;;;;;;;3.88;2.03;;;;;;;13.78;90.85;98732.59;4203228;28;20048;-71
2022/07/27 04:27:16;;;;;;;3.60;2.00;;;;;;;13.81;90.57;98731.00;4204488;28;20089;-72
2022/07/27 04:29:16;;;;;;;3.00;2.00;;;;;;;13.85;89.72;98731.81;4203569;28;20063;-71
2022/07/27 04:31:16;;;;;;;5.32;2.10;;;;;;;13.92;88.91;98733.84;4204334;28;20054;-71
2022/07/27 04:33:17;;;;;;;6.32;1.85;;;;;;;13.90;88.85;98731.44;4202709;28;20083;-71
2022/07/27 04:35:17;;;;;;;6.05;1.75;;;;;;;13.90;88.56;98737.00;4203524;28;20055;-71
2022/07/27 04:37:18;;;;;;;4.03;1.88;;;;;;;13.91;86.90;98738.59;4204857;28;20052;-72
2022/07/27 04:39:18;;;;;;;6.28;2.63;;;;;;;13.93;86.52;98743.78;4204589;28;20185;-72
2022/07/27 04:41:18;;;;;;;2.75;1.60;;;;;;;13.94;86.14;98746.16;4205711;28;20181;-72
2022/07/27 04:43:19;;;;;;;4.10;1.65;;;;;;;13.99;85.21;98745.78;4203931;28;20051;-72
2022/07/27 04:45:19;;;;;;;5.55;1.75;;;;;;;13.98;85.21;98752.53;4202020;28;20386;-72
2022/07/27 04:47:19;;;;;;;11.32;2.40;;;;;;;13.97;84.51;98748.13;4144396;27;20499;-72
2022/07/27 04:49:20;;;;;;;2.80;1.50;;;;;;;14.00;82.61;98749.34;4203713;28;20044;-72
2022/07/27 04:51:20;;;;;;;7.70;1.58;;;;;;;13.99;82.43;98751.34;4204086;28;20132;-72
2022/07/27 04:53:21;;;;;;;3.60;1.70;;;;;;;13.97;80.60;98750.91;4204172;28;20067;-72
2022/07/27 04:55:21;;;;;;;3.05;1.70;;;;;;;13.93;79.68;98750.13;4204908;28;20155;-72
2022/07/27 04:57:22;;;;;;;3.00;1.23;;;;;;;13.94;79.99;98751.72;4204373;28;20040;-72
2022/07/27 04:59:22;;;;;;;6.05;1.58;;;;;;;13.93;79.71;98741.78;4203693;28;20489;-72
2022/07/27 05:01:24;;;;;;;3.45;1.50;;;;;;;13.90;79.02;98748.16;4205272;28;20043;-72
2022/07/27 05:03:24;;;;;;;7.25;1.60;;;;;;;13.89;79.34;98749.31;4204455;28;20054;-72
2022/07/27 05:05:24;;;;;;;5.30;1.65;;;;;;;13.88;78.65;98761.63;4203545;28;20052;-72
2022/07/27 05:07:25;;;;;;;4.47;1.58;;;;;;;13.87;78.58;98762.03;4204065;28;20033;-72
2022/07/27 05:09:26;;;;;;;4.82;1.30;;;;;;;13.88;78.09;98763.59;4202901;28;20033;-72
2022/07/27 05:11:26;;;;;;;4.68;1.60;;;;;;;13.91;78.15;98768.41;4203552;28;20036;-71
2022/07/27 05:13:26;;;;;;;7.50;1.73;;;;;;;13.91;78.42;98762.84;4194673;28;20488;-71
2022/07/27 05:15:27;;;;;;;4.18;1.65;;;;;;;13.91;79.43;98766.41;4203043;28;20299;-72
2022/07/27 05:17:27;;;;;;;3.63;1.17;;;;;;;13.90;79.59;98764.00;4203786;28;20177;-71
2022/07/27 05:19:31;;;;;;;4.75;1.60;;;;;;;13.91;79.38;98768.41;4198397;28;20087;-71
2022/07/27 05:21:31;;;;;;;5.05;2.00;;;;;;;13.93;79.36;98758.47;4202523;28;20564;-71
2022/07/27 05:23:32;;;;;;;5.00;1.40;;;;;;;13.93;78.08;98766.81;4203534;28;20055;-71
2022/07/27 05:25:32;;;;;;;4.20;1.45;;;;;;;13.93;77.80;98763.25;4204156;28;20434;-71
2022/07/27 05:27:32;;;;;;;6.88;1.50;;;;;;;13.92;78.20;98761.66;4203580;28;20606;-71
2022/07/27 05:29:33;;;;;;;4.13;1.40;;;;;;;13.94;77.81;98773.97;4204137;28;20051;-71
2022/07/27 05:31:33;;;;;;;3.63;1.50;;;;;;;13.98;77.57;98771.19;4204037;28;20379;-71
2022/07/27 05:33:34;;;;;;;3.78;1.17;;;;;;;13.96;77.80;98757.66;4202960;28;20078;-71
2022/07/27 05:35:34;;;;;;;5.50;1.88;;;;;;;14.03;77.78;98763.25;4202607;28;20483;-71
2022/07/27 05:37:35;;;;;;;3.20;1.50;;;;;;;14.05;78.25;98771.19;4203953;28;20040;-71
2022/07/27 05:39:35;;;;;;;2.53;1.05;;;;;;;14.10;78.27;98778.38;4204243;28;20150;-71
2022/07/27 05:41:35;;;;;;;2.70;1.50;;;;;;;14.12;77.72;98784.34;4203096;28;20058;-71
2022/07/27 05:43:36;;;;;;;2.42;1.20;;;;;;;14.16;77.80;98788.72;4203696;28;20040;-71
2022/07/27 05:45:36;;;;;;;3.25;1.40;;;;;;;14.19;77.60;98785.16;4204011;28;20047;-71
2022/07/27 05:47:38;;;;;;;2.00;1.20;;;;;;;14.24;77.56;98789.53;4203792;28;20043;-71
2022/07/27 05:49:38;;;;;;;9.02;1.60;;;;;;;14.26;77.53;98787.16;4203023;28;20131;-71
2022/07/27 05:51:39;;;;;;;4.95;1.60;;;;;;;14.30;78.04;98793.50;4203625;28;20076;-71
2022/07/27 05:53:39;;;;;;;3.22;1.60;;;;;;;14.32;77.70;98791.94;4203195;28;20044;-71
2022/07/27 05:55:40;;;;;;;3.80;1.70;;;;;;;14.34;76.52;98794.31;4203590;28;20573;-71
2022/07/27 05:57:40;;;;;;;4.63;1.45;;;;;;;14.36;76.27;98796.72;4203631;28;20047;-71
2022/07/27 05:59:41;;;;;;;3.83;1.40;;;;;;;14.36;75.41;98800.28;4203215;28;20059;-71
2022/07/27 06:01:41;;;;;;;5.35;1.30;;;;;;;14.39;75.76;98807.84;4203168;28;20048;-71
2022/07/27 06:03:41;;;;;;;4.68;1.95;;;;;;;14.39;75.59;98813.41;4203326;28;20373;-71
2022/07/27 06:05:42;;;;;;;5.75;1.65;;;;;;;14.39;74.64;98810.63;4203342;28;20135;-71
2022/07/27 06:07:57;;;;;;;1.27;1.00;;;;;;;14.40;74.93;98811.41;4202942;28;20548;-72
2022/07/27 06:09:59;;;;;;;2.45;1.10;;;;;;;14.39;74.51;98815.38;4202510;28;20054;-72
2022/07/27 06:11:59;;;;;;;3.63;1.30;;;;;;;14.41;74.55;98808.25;4203470;28;20131;-71
2022/07/27 06:14:00;;;;;;;3.25;1.35;;;;;;;14.42;74.70;98818.19;4202028;28;20036;-71
2022/07/27 06:16:01;;;;;;;3.15;1.38;;;;;;;14.46;74.50;98815.44;4204075;28;20047;-71
2022/07/27 06:18:02;;;;;;;6.28;1.40;;;;;;;14.48;74.81;98810.25;4202595;28;20456;-71
2022/07/27 06:20:05;;;;;;;5.20;1.50;;;;;;;14.50;75.16;98807.91;4203272;28;20058;-71
2022/07/27 06:22:05;;;;;;;;;;;;;;;14.55;75.00;98810.28;4203275;28;20036;-72
2022/07/27 06:24:06;;;;;;;5.95;1.60;;;;;;;14.57;73.97;98814.28;4203954;28;19978;-72
2022/07/27 06:26:06;;;;;;;3.90;1.45;;;;;;;14.59;74.56;98811.88;4203874;28;20032;-72
2022/07/27 06:28:07;;;;;;;3.75;1.40;;;;;;;14.64;73.18;98816.25;4202665;28;20494;-71
2022/07/27 06:30:09;;;;;;;3.25;1.30;;;;;;;14.67;73.51;98815.47;4202716;28;20058;-71
2022/07/27 06:32:09;;;;;;;7.53;1.52;;;;;;;14.72;72.23;98809.47;4202720;28;20089;-71
2022/07/27 06:34:09;;;;;;;3.45;1.60;;;;;;;14.73;71.85;98810.28;4203351;28;20464;-71
2022/07/27 06:36:10;;;;;;;6.15;1.50;;;;;;;14.75;72.34;98819.84;4201621;28;20024;-71
2022/07/27 06:38:10;;;;;;;8.25;1.73;;;;;;;14.72;71.54;98815.06;4202608;28;20169;-71
2022/07/27 06:40:12;;;;;;;5.50;1.73;;;;;;;14.72;71.27;98815.06;4203249;28;20093;-71
2022/07/27 06:42:13;;;;;;;3.22;1.10;;;;;;;14.73;70.65;98816.66;4202218;28;20448;-71
2022/07/27 06:44:13;;;;;;;8.43;1.80;;;;;;;14.75;71.02;98822.63;4203158;28;20024;-71
2022/07/27 06:46:14;;;;;;;6.45;1.70;;;;;;;14.77;71.35;98823.03;4202928;28;20042;-72
2022/07/27 06:48:14;;;;;;;7.00;1.48;;;;;;;14.82;70.35;98819.06;4203200;28;20052;-71
2022/07/27 06:50:19;;;;;;;6.15;1.58;;;;;;;14.86;70.71;98817.84;4201503;28;20020;-71
2022/07/27 06:52:19;;;;;;;3.03;1.08;;;;;;;14.93;70.97;98825.41;4202815;28;20028;-71
2022/07/27 06:54:19;;;;;;;7.25;1.88;;;;;;;15.00;71.43;98822.63;4202781;28;20020;-71
2022/07/27 06:56:21;;;;;;;5.18;1.60;;;;;;;15.05;72.15;98824.19;4202747;28;23120;-71
2022/07/27 06:58:21;;;;;;;6.25;1.52;;;;;;;15.12;71.25;98826.97;4202296;28;20173;-71
2022/07/27 07:00:21;;;;;;;8.02;1.40;;;;;;;15.23;72.32;98832.56;4202048;28;20858;-72
2022/07/27 07:02:22;;;;;;;3.63;1.30;;;;;;;15.29;71.84;98817.00;4202252;28;20119;-72
2022/07/27 07:04:22;;;;;;;8.48;1.58;;;;;;;15.38;71.60;98828.53;4202203;28;20200;-71
2022/07/27 07:06:23;;;;;;;3.53;1.48;;;;;;;15.43;70.97;98830.91;4202832;28;20136;-71
2022/07/27 07:08:23;;;;;;;6.05;1.70;;;;;;;15.56;70.61;98828.50;4202498;28;20044;-71
2022/07/27 07:10:24;;;;;;;6.50;2.03;;;;;;;15.63;69.70;98828.50;4202111;28;20044;-71
2022/07/27 07:12:27;;;;;;;4.05;1.25;;;;;;;15.70;68.81;98836.84;4202582;28;20047;-71
2022/07/27 07:14:27;;;;;;;6.90;2.03;;;;;;;15.75;68.74;98833.66;4200970;28;20036;-71
2022/07/27 07:16:27;;;;;;;5.30;1.35;;;;;;;15.80;68.87;98841.56;4202960;28;20357;-71
2022/07/27 07:18:28;;;;;;;4.35;1.60;;;;;;;15.78;67.99;98834.81;4202175;28;20101;-72
2022/07/27 07:20:29;;;;;;;3.67;2.00;;;;;;;15.82;66.82;98842.00;4202981;28;20657;-72
2022/07/27 07:22:32;;;;;;;3.47;1.50;;;;;;;15.89;67.44;98843.97;4202006;28;20044;-71
2022/07/27 07:24:32;;;;;;;;;;;;;;;15.89;65.13;98833.59;4201395;28;20048;-71
2022/07/27 07:26:35;;;;;;;3.25;1.73;;;;;;;15.88;64.46;98837.56;4203204;28;19926;-72
2022/07/27 07:28:35;;;;;;;4.93;1.80;;;;;;;15.85;65.74;98837.59;4201626;28;20039;-72
2022/07/27 07:30:35;;;;;;;4.65;1.40;;;;;;;15.90;67.11;98831.59;4201500;28;20043;-71
2022/07/27 07:32:36;;;;;;;6.03;1.60;;;;;;;15.96;65.25;98835.53;4202615;28;20177;-71
2022/07/27 07:34:36;;;;;;;4.57;1.45;;;;;;;15.97;65.26;98837.94;4202797;28;20222;-71
2022/07/27 07:36:36;;;;;;;4.55;1.38;;;;;;;16.09;65.80;98841.47;4201742;28;20449;-72
2022/07/27 07:38:37;;;;;;;4.82;1.40;;;;;;;16.22;66.01;98837.81;4202048;28;20497;-71
2022/07/27 07:40:37;;;;;;;3.85;1.50;;;;;;;16.35;65.15;98834.53;4202885;28;20040;-71
2022/07/27 07:42:52;;;;;;;4.78;1.75;;;;;;;16.40;63.73;98834.91;4201623;28;20151;-72
2022/07/27 07:44:53;;;;;;;3.78;1.30;;;;;;;16.36;62.98;98836.13;4201943;28;20036;-71
2022/07/27 07:46:53;;;;;;;4.70;1.40;;;;;;;16.38;62.11;98842.88;4202065;28;20203;-71
2022/07/27 07:48:54;;;;;;;7.05;1.95;;;;;;;16.47;62.42;98837.69;4202150;28;20139;-71
2022/07/27 07:50:54;;;;;;;4.25;1.13;;;;;;;16.52;62.71;98831.63;4201214;28;20040;-71
2022/07/27 07:52:55;;;;;;;4.40;1.27;;;;;;;16.61;62.42;98831.19;4201344;28;20036;-71
2022/07/27 07:54:55;;;;;;;6.43;1.88;;;;;;;16.69;60.78;98832.75;4202127;28;20036;-71
2022/07/27 07:56:55;;;;;;;7.32;1.50;;;;;;;16.85;60.57;98830.22;4201697;28;20048;-71
2022/07/27 07:58:56;;;;;;;4.68;2.13;;;;;;;17.00;60.73;98825.31;4202495;28;20054;-71
2022/07/27 08:00:56;;;;;;;4.03;1.17;;;;;;;17.00;58.94;98828.13;4200983;28;20468;-71
2022/07/27 08:02:57;;;;;;;6.28;1.48;;;;;;;16.93;58.24;98827.38;4202529;28;20150;-71
2022/07/27 08:04:57;;;;;;;7.28;1.48;;;;;;;16.95;59.28;98827.75;4201459;28;20036;-71
2022/07/27 08:06:58;;;;;;;4.57;1.40;;;;;;;16.92;58.43;98826.59;4201939;28;20392;-71
2022/07/27 08:08:58;;;;;;;12.05;2.33;;;;;;;16.90;59.28;98833.81;4201165;28;20040;-71
2022/07/27 08:10:58;;;;;;;5.15;2.08;;;;;;;16.90;60.21;98826.22;4202051;28;20044;-71
2022/07/27 08:12:59;;;;;;;6.57;1.45;;;;;;;16.96;60.79;98829.34;4202597;28;20490;-71
2022/07/27 08:14:59;;;;;;;2.55;1.30;;;;;;;17.03;60.79;98832.88;4201691;28;20534;-71
2022/07/27 08:17:00;;;;;;;9.32;2.10;;;;;;;17.01;59.24;98831.69;4202327;28;20032;-71
2022/07/27 08:19:00;;;;;;;7.78;1.50;;;;;;;16.84;59.02;98839.03;4201259;28;20079;-71
2022/07/27 08:21:00;;;;;;;9.20;1.88;;;;;;;16.80;58.83;98838.28;4201959;28;20360;-71
2022/07/27 08:23:01;;;;;;;4.50;1.33;;;;;;;16.76;59.04;98835.50;4201578;28;20224;-71
2022/07/27 08:25:03;;;;;;;6.55;1.45;;;;;;;16.69;59.37;98841.13;4202191;28;20044;-71
2022/07/27 08:27:04;;;;;;;7.53;1.77;;;;;;;16.81;57.83;98840.66;4201556;28;20040;-72
2022/07/27 08:29:04;;;;;;;4.85;1.60;;;;;;;16.78;58.51;98838.66;4199993;28;20059;-72
2022/07/27 08:31:04;;;;;;;4.35;1.55;;;;;;;16.71;58.30;98838.72;4202338;28;20055;-72
2022/07/27 08:33:05;;;;;;;6.35;1.70;;;;;;;16.69;59.01;98838.34;4201542;28;20043;-72
2022/07/27 08:35:06;;;;;;;6.60;1.40;;;;;;;16.69;58.72;98845.91;4201957;28;20365;-72
2022/07/27 08:37:06;;;;;;;3.10;1.48;;;;;;;16.70;59.33;98839.13;4202154;28;20282;-72
2022/07/27 08:39:07;;;;;;;4.47;1.40;;;;;;;16.69;58.68;98846.72;4199912;28;20044;-72
2022/07/27 08:41:09;;;;;;;3.10;1.25;;;;;;;16.59;57.63;98844.78;4202213;28;20298;-72
2022/07/27 08:43:10;;;;;;;;;;;;;;;16.55;58.70;98844.81;4200728;28;20048;-72
2022/07/27 08:45:16;;;;;;;4.18;1.30;;;;;;;16.48;58.48;98849.63;4202275;28;19912;-72
2022/07/27 08:47:19;;;;;;;6.32;1.52;;;;;;;16.55;58.41;98844.81;4200608;28;20094;-72
2022/07/27 08:49:20;;;;;;;6.60;1.52;;;;;;;16.54;58.34;98840.41;4201001;28;20044;-72
2022/07/27 08:51:23;;;;;;;7.05;1.48;;;;;;;16.56;58.82;98851.97;4202074;28;20368;-72
2022/07/27 08:53:24;;;;;;;8.43;1.95;;;;;;;16.49;59.10;98851.22;4200751;28;20044;-72
2022/07/27 08:55:26;;;;;;;8.90;1.58;;;;;;;16.64;58.70;98841.56;4202544;28;20146;-72
2022/07/27 08:57:27;;;;;;;5.28;1.30;;;;;;;16.63;58.23;98851.09;4201059;28;20488;-71
2022/07/27 08:59:27;;;;;;;6.53;2.42;;;;;;;16.57;57.64;98844.38;4199542;28;20043;-71
2022/07/27 09:01:31;;;;;;;4.45;1.50;;;;;;;16.50;58.60;98848.03;4201404;28;20048;-71
2022/07/27 09:03:31;;;;;;;6.22;1.73;;;;;;;16.55;58.08;98844.00;4201172;28;20128;-71
2022/07/27 09:05:32;;;;;;;2.83;1.73;;;;;;;16.48;58.24;98844.06;4200166;28;20530;-71
2022/07/27 09:07:32;;;;;;;6.10;1.70;;;;;;;16.37;59.11;98860.84;4201081;28;20051;-71
2022/07/27 09:09:44;;;;;;;5.18;1.70;;;;;;;16.38;58.92;98844.88;4204187;28;20121;-71
2022/07/27 09:12:06;;;;;;;7.53;1.20;;;;;;;16.49;59.76;98848.44;4204034;28;20066;-71
2022/07/27 09:14:11;;;;;;;5.22;1.60;;;;;;;16.55;59.10;98844.00;4203156;28;20073;-71
2022/07/27 09:16:11;;;;;;;3.58;1.48;;;;;;;16.59;58.93;98841.97;4203578;28;20036;-71
2022/07/27 09:18:18;;;;;;;4.95;1.17;;;;;;;16.65;57.69;98845.13;4203952;28;20042;-71
2022/07/27 09:20:19;;;;;;;3.53;1.60;;;;;;;16.65;58.82;98847.94;4196875;28;20036;-72
2022/07/27 09:22:45;;;;;;;4.60;1.55;;;;;;;16.64;58.52;98843.56;4203898;28;20421;-71
2022/07/27 09:25:01;;;;;;;2.47;1.75;;;;;;;16.67;58.02;98845.50;4203520;28;20043;-71
2022/07/27 09:27:03;;;;;;;4.47;1.60;;;;;;;16.74;58.16;98846.28;4204948;28;20089;-71
2022/07/27 09:29:06;;;;;;;7.13;1.88;;;;;;;16.73;57.70;98850.28;4192970;28;20071;-71
2022/07/27 09:31:12;;;;;;;6.75;1.88;;;;;;;16.52;58.13;98842.03;4204030;28;20406;-71